Landingville, Pennsylvania
Current Conditions -  °F | °C
As of 2:54 PM on Friday 31 Oct 2014 (Local Time) from KRDG Reporting Station
Scattered Clouds Scattered Clouds  
Wind Chill: 54°   Ceiling: Unl
Heat Index: 54°   Visibility: 10mi
Dew Point: 31°   Wind: 10mph
Humidity: 41%   Direction: 30°NNE
Pressure: 29.89"   Gusts: NA
Location:  40.63°N, 76.12°W
Report Text: KRDG 311854Z 03009KT 10SM SCT045 12/M01 A2989 RMK AO2 SLP126 T01221006
Loading
Personal Weather Stations






























Interactive Weather Map New forecast layout! Learn more

10-Day Weather Forecast

Advertisements
Track Severe Weather on mobile